createdAt,value
2022-11-17T00:01:37.255Z,9.73
2022-11-17T00:04:07.105Z,10.70
2022-11-17T00:06:37.036Z,10.27
2022-11-17T00:09:06.960Z,10.30
2022-11-17T00:11:51.674Z,10.32
2022-11-17T00:14:36.930Z,10.07
2022-11-17T00:17:09.759Z,10.18
2022-11-17T00:19:52.354Z,10.55
2022-11-17T00:22:22.675Z,10.52
2022-11-17T00:24:52.939Z,9.75
2022-11-17T00:27:25.366Z,11.23
2022-11-17T00:29:55.295Z,9.85
2022-11-17T00:32:37.802Z,11.05
2022-11-17T00:35:09.037Z,10.45
2022-11-17T00:38:01.485Z,10.07
2022-11-17T00:40:31.727Z,9.60
2022-11-17T00:43:04.167Z,10.82
2022-11-17T00:45:33.994Z,10.32
2022-11-17T00:48:03.875Z,10.02
2022-11-17T00:50:33.702Z,9.88
2022-11-17T00:53:03.588Z,9.48
2022-11-17T00:55:33.568Z,9.65
2022-11-17T00:58:06.347Z,10.50
2022-11-17T01:00:36.165Z,9.77
2022-11-17T01:03:06.032Z,8.98
2022-11-17T01:05:37.588Z,10.95
2022-11-17T01:08:08.067Z,9.88
2022-11-17T01:10:38.486Z,9.48
2022-11-17T01:13:10.936Z,9.20
2022-11-17T01:15:40.770Z,9.45
2022-11-17T01:18:11.112Z,9.07
2022-11-17T01:20:41.053Z,9.15
2022-11-17T01:23:10.907Z,9.50
2022-11-17T01:25:40.939Z,8.73
2022-11-17T01:28:13.360Z,8.70
2022-11-17T01:30:43.199Z,8.77
2022-11-17T01:33:13.092Z,9.55
2022-11-17T01:35:42.919Z,9.55
2022-11-17T01:38:12.762Z,8.98
2022-11-17T01:40:42.610Z,9.13
2022-11-17T01:43:15.474Z,9.10
2022-11-17T01:45:45.678Z,9.15
2022-11-17T01:48:17.691Z,8.95
2022-11-17T01:50:50.414Z,8.27
2022-11-17T01:53:23.392Z,9.43
2022-11-17T01:55:59.196Z,9.18
2022-11-17T01:58:34.763Z,7.90
2022-11-17T02:01:04.934Z,9.95
2022-11-17T02:03:36.029Z,9.05
2022-11-17T02:06:10.982Z,9.23
2022-11-17T02:08:44.253Z,8.45
2022-11-17T02:11:18.499Z,9.15
2022-11-17T02:13:54.712Z,8.88
2022-11-17T02:16:24.547Z,8.60
2022-11-17T02:18:54.437Z,8.93
2022-11-17T02:22:22.281Z,9.48
2022-11-17T02:25:28.993Z,9.15
2022-11-17T02:28:16.534Z,9.68
2022-11-17T02:31:03.629Z,9.38
2022-11-17T02:33:45.678Z,9.02
2022-11-17T02:36:23.116Z,9.32
2022-11-17T02:39:02.779Z,9.40
2022-11-17T02:41:39.008Z,9.07
2022-11-17T02:44:16.324Z,8.70
2022-11-17T02:46:50.399Z,8.23
2022-11-17T02:49:26.263Z,9.07
2022-11-17T02:51:59.697Z,8.90
2022-11-17T02:54:33.598Z,9.25
2022-11-17T02:57:03.689Z,10.23
2022-11-17T02:59:40.343Z,9.32
2022-11-17T03:02:46.928Z,8.40
2022-11-17T03:05:23.591Z,8.85
2022-11-17T03:08:12.199Z,9.27
2022-11-17T03:10:53.781Z,8.60
2022-11-17T03:13:36.954Z,8.85
2022-11-17T03:16:19.685Z,8.98
2022-11-17T03:19:03.636Z,8.77
2022-11-17T03:21:40.906Z,9.35
2022-11-17T03:24:16.973Z,9.07
2022-11-17T03:26:54.572Z,9.57
2022-11-17T03:29:29.043Z,9.63
2022-11-17T03:32:05.300Z,9.65
2022-11-17T03:34:48.141Z,9.10
2022-11-17T03:37:22.133Z,10.23
2022-11-17T03:39:55.778Z,9.15
2022-11-17T03:42:29.941Z,9.13
2022-11-17T03:45:06.118Z,8.40
2022-11-17T03:47:39.480Z,7.75
2022-11-17T03:50:16.207Z,10.02
2022-11-17T03:52:47.659Z,10.07
2022-11-17T03:55:18.441Z,9.05
2022-11-17T03:57:56.826Z,9.32
2022-11-17T04:00:26.695Z,9.38
2022-11-17T04:03:01.385Z,9.18
2022-11-17T04:05:31.379Z,9.88
2022-11-17T04:08:01.240Z,10.25
2022-11-17T04:10:31.239Z,9.20
2022-11-17T04:13:13.573Z,9.48
2022-11-17T04:15:56.143Z,8.70
2022-11-17T04:18:28.890Z,10.88
2022-11-17T04:20:59.978Z,9.63
2022-11-17T04:23:29.847Z,9.73
2022-11-17T04:26:13.173Z,10.23
2022-11-17T04:28:46.656Z,9.95
2022-11-17T04:31:18.714Z,9.82
2022-11-17T04:33:52.785Z,10.57
2022-11-17T04:36:25.451Z,10.05
2022-11-17T04:38:57.576Z,9.18
2022-11-17T04:41:42.331Z,11.40
2022-11-17T04:44:14.974Z,9.90
2022-11-17T04:46:46.107Z,10.73
2022-11-17T04:49:20.758Z,10.40
2022-11-17T04:51:51.455Z,9.88
2022-11-17T04:54:24.586Z,11.18
2022-11-17T04:56:55.335Z,11.07
2022-11-17T04:59:25.771Z,10.63
2022-11-17T05:01:57.003Z,10.52
2022-11-17T05:04:43.691Z,10.95
2022-11-17T05:07:13.565Z,9.60
2022-11-17T05:09:43.422Z,9.63
2022-11-17T05:12:25.768Z,10.32
2022-11-17T05:14:55.583Z,11.15
2022-11-17T05:17:22.863Z,10.90
2022-11-17T05:19:55.271Z,10.85
2022-11-17T05:22:39.247Z,10.18
2022-11-17T05:25:10.699Z,11.13
2022-11-17T05:27:40.833Z,10.68
2022-11-17T05:30:13.589Z,10.40
2022-11-17T05:32:43.421Z,10.32
2022-11-17T05:35:15.985Z,11.65
2022-11-17T05:37:45.822Z,11.70
2022-11-17T05:40:16.024Z,10.90
2022-11-17T05:42:45.882Z,11.18
2022-11-17T05:45:15.724Z,11.63
2022-11-17T05:47:45.601Z,11.40
2022-11-17T05:50:19.272Z,11.65
2022-11-17T05:52:49.153Z,12.27
2022-11-17T05:55:19.138Z,10.68
2022-11-17T05:57:49.604Z,11.63
2022-11-17T06:00:20.344Z,10.02
2022-11-17T06:02:56.162Z,11.50
2022-11-17T06:05:28.637Z,11.35
2022-11-17T06:07:59.590Z,12.10
2022-11-17T06:10:30.113Z,11.70
2022-11-17T06:12:59.937Z,11.98
2022-11-17T06:15:29.956Z,11.13
2022-11-17T06:18:05.256Z,12.10
2022-11-17T06:20:42.175Z,11.25
2022-11-17T06:23:14.237Z,12.13
2022-11-17T06:25:44.368Z,11.55
2022-11-17T06:28:18.306Z,11.93
2022-11-17T06:30:48.357Z,12.27
2022-11-17T06:33:20.510Z,11.82
2022-11-17T06:35:53.238Z,12.00
2022-11-17T06:38:23.208Z,11.95
2022-11-17T06:40:53.415Z,12.32
2022-11-17T06:43:23.299Z,11.80
2022-11-17T06:45:53.214Z,10.70
2022-11-17T06:48:27.113Z,11.55
2022-11-17T06:50:59.592Z,11.10
2022-11-17T06:53:29.437Z,11.13
2022-11-17T06:56:09.816Z,11.15
2022-11-17T06:58:42.591Z,11.50
2022-11-17T07:01:14.895Z,10.98
2022-11-17T07:03:45.732Z,10.70
2022-11-17T07:06:19.150Z,11.93
2022-11-17T07:08:50.845Z,11.23
2022-11-17T07:11:20.890Z,10.15
2022-11-17T07:13:50.749Z,10.57
2022-11-17T07:16:23.958Z,10.80
2022-11-17T07:18:55.285Z,9.98
2022-11-17T07:21:27.766Z,12.32
2022-11-17T07:23:57.649Z,12.20
2022-11-17T07:26:27.814Z,11.13
2022-11-17T07:28:57.915Z,10.25
2022-11-17T07:31:27.764Z,10.70
2022-11-17T07:33:57.646Z,9.70
2022-11-17T07:36:30.085Z,10.15
2022-11-17T07:38:59.934Z,10.52
2022-11-17T07:41:29.863Z,10.90
2022-11-17T07:43:59.736Z,9.75
2022-11-17T07:46:29.627Z,9.80
2022-11-17T07:48:59.684Z,10.85
2022-11-17T07:51:32.108Z,11.40
2022-11-17T07:54:01.974Z,9.88
2022-11-17T07:56:31.837Z,10.88
2022-11-17T07:59:01.669Z,10.38
2022-11-17T08:01:31.601Z,10.23
2022-11-17T08:04:01.675Z,10.27
2022-11-17T08:06:34.212Z,10.70
2022-11-17T08:09:04.078Z,11.02
2022-11-17T08:11:34.353Z,10.23
2022-11-17T08:14:06.965Z,10.73
2022-11-17T08:16:36.950Z,10.68
2022-11-17T08:19:06.919Z,10.65
2022-11-17T08:21:41.078Z,11.00
2022-11-17T08:24:11.695Z,12.38
2022-11-17T08:26:41.575Z,10.50
2022-11-17T08:29:11.720Z,10.35
2022-11-17T08:31:46.044Z,12.10
2022-11-17T08:34:16.484Z,10.93
2022-11-17T08:36:48.930Z,12.27
2022-11-17T08:39:18.794Z,11.82
2022-11-17T08:41:48.685Z,10.98
2022-11-17T08:44:18.522Z,11.30
2022-11-17T08:46:49.094Z,10.55
2022-11-17T08:49:18.921Z,11.88
2022-11-17T08:51:51.347Z,9.75
2022-11-17T08:54:21.230Z,12.32
2022-11-17T08:56:51.218Z,10.93
2022-11-17T08:59:21.107Z,11.70
2022-11-17T09:01:50.987Z,10.85
2022-11-17T09:04:21.440Z,11.18
2022-11-17T09:06:54.044Z,11.07
2022-11-17T09:09:24.339Z,10.55
2022-11-17T09:11:54.259Z,10.48
2022-11-17T09:14:24.105Z,11.63
2022-11-17T09:16:53.986Z,12.20
2022-11-17T09:19:23.833Z,10.70
2022-11-17T09:21:56.292Z,11.02
2022-11-17T09:24:26.799Z,10.13
2022-11-17T09:26:57.486Z,10.80
2022-11-17T09:29:27.418Z,10.95
2022-11-17T09:31:57.666Z,10.60
2022-11-17T09:34:29.382Z,12.13
2022-11-17T09:37:01.904Z,12.27
2022-11-17T09:39:31.741Z,10.77
2022-11-17T09:42:02.047Z,10.27
2022-11-17T09:44:40.332Z,11.15
2022-11-17T09:47:25.861Z,10.18
2022-11-17T09:50:00.758Z,10.73
2022-11-17T09:52:39.617Z,10.88
2022-11-17T09:55:29.694Z,9.43
2022-11-17T09:58:14.082Z,10.07
2022-11-17T10:00:48.920Z,10.90
2022-11-17T10:05:52.356Z,10.02
2022-11-17T10:08:37.583Z,8.93
2022-11-17T10:11:31.643Z,9.05
2022-11-17T10:14:05.647Z,9.60
2022-11-17T10:16:35.505Z,10.35
2022-11-17T10:19:14.152Z,9.65
2022-11-17T10:21:44.042Z,9.60
2022-11-17T10:24:37.738Z,8.60
2022-11-17T10:27:21.495Z,9.80
2022-11-17T10:30:03.545Z,9.57
2022-11-17T10:32:35.575Z,9.60
2022-11-17T10:35:21.082Z,9.48
2022-11-17T10:37:58.531Z,8.93
2022-11-17T10:40:34.085Z,9.98
2022-11-17T10:43:21.392Z,8.60
2022-11-17T10:45:54.176Z,9.05
2022-11-17T10:48:29.834Z,8.60
2022-11-17T10:51:02.151Z,8.10
2022-11-17T10:53:44.840Z,9.85
2022-11-17T10:56:22.211Z,9.35
2022-11-17T10:59:04.119Z,8.88
2022-11-17T11:01:36.504Z,9.52
2022-11-17T11:04:09.386Z,9.15
2022-11-17T11:06:39.350Z,8.95
2022-11-17T11:09:17.023Z,9.27
2022-11-17T11:11:52.149Z,10.15
2022-11-17T11:14:30.461Z,9.13
2022-11-17T11:17:00.755Z,8.23
2022-11-17T11:19:32.137Z,8.88
2022-11-17T11:22:30.159Z,8.18
2022-11-17T11:25:12.226Z,9.02
2022-11-17T11:27:59.824Z,8.38
2022-11-17T11:30:30.345Z,8.93
2022-11-17T11:33:28.437Z,8.02
2022-11-17T11:36:11.404Z,8.45
2022-11-17T11:38:55.065Z,8.45
2022-11-17T11:41:53.706Z,8.95
2022-11-17T11:44:47.213Z,8.23
2022-11-17T11:47:37.442Z,8.68
2022-11-17T11:50:16.968Z,9.07
2022-11-17T11:52:51.644Z,8.88
2022-11-17T11:55:27.371Z,8.45
2022-11-17T11:58:09.273Z,8.15
2022-11-17T12:00:43.219Z,9.20
2022-11-17T12:03:24.550Z,8.53
2022-11-17T12:06:29.594Z,8.32
2022-11-17T12:09:18.583Z,7.50
2022-11-17T12:12:02.202Z,8.93
2022-11-17T12:14:34.413Z,8.02
2022-11-17T12:17:23.312Z,8.20
2022-11-17T12:19:59.838Z,8.25
2022-11-17T12:22:53.001Z,7.47
2022-11-17T12:25:27.327Z,8.90
2022-11-17T12:27:57.429Z,7.95
2022-11-17T12:30:55.321Z,8.43
2022-11-17T12:34:13.101Z,8.85
2022-11-17T12:36:43.407Z,8.27
2022-11-17T12:39:56.243Z,8.70
2022-11-17T12:42:26.396Z,8.05
2022-11-17T12:45:04.887Z,8.63
2022-11-17T12:47:36.961Z,8.50
2022-11-17T12:50:44.472Z,9.38
2022-11-17T12:53:56.558Z,8.75
2022-11-17T12:56:56.634Z,8.57
2022-11-17T13:00:00.472Z,8.70
2022-11-17T13:03:03.023Z,8.55
2022-11-17T13:05:35.868Z,9.20
2022-11-17T13:08:24.707Z,8.57
2022-11-17T13:11:06.953Z,8.43
2022-11-17T13:13:37.762Z,8.50
2022-11-17T13:16:11.939Z,9.05
2022-11-17T13:18:44.435Z,9.27
2022-11-17T13:21:33.211Z,9.50
2022-11-17T13:24:03.573Z,10.75
2022-11-17T13:26:38.129Z,10.27
2022-11-17T13:29:11.652Z,8.73
2022-11-17T13:31:42.309Z,9.65
2022-11-17T13:34:21.448Z,9.73
2022-11-17T13:37:02.698Z,10.15
2022-11-17T13:39:32.683Z,9.70
2022-11-17T13:42:05.353Z,9.80
2022-11-17T13:44:36.569Z,9.70
2022-11-17T13:47:21.898Z,9.60
2022-11-17T13:49:52.104Z,9.65
2022-11-17T13:52:40.723Z,8.65
2022-11-17T13:55:20.761Z,9.77
2022-11-17T13:57:58.691Z,9.20
2022-11-17T14:00:30.965Z,9.68
2022-11-17T14:03:03.550Z,9.82
2022-11-17T14:05:35.487Z,9.70
2022-11-17T14:08:31.853Z,9.75
2022-11-17T14:11:26.249Z,9.20
2022-11-17T14:13:58.980Z,10.73
2022-11-17T14:16:31.446Z,10.70
2022-11-17T14:19:04.759Z,10.70
2022-11-17T14:21:35.553Z,10.25
2022-11-17T14:24:14.594Z,10.73
2022-11-17T14:26:46.560Z,11.10
2022-11-17T14:29:16.922Z,10.70
2022-11-17T14:31:46.859Z,11.38
2022-11-17T14:34:17.569Z,10.38
2022-11-17T14:36:48.049Z,10.35
2022-11-17T14:39:21.427Z,9.75
2022-11-17T14:41:53.580Z,10.93
2022-11-17T14:44:23.857Z,11.60
2022-11-17T14:46:53.718Z,11.98
2022-11-17T14:49:23.561Z,11.25
2022-11-17T14:51:55.394Z,9.25
2022-11-17T14:54:27.955Z,11.65
2022-11-17T14:56:57.824Z,10.57
2022-11-17T14:59:27.885Z,10.93
2022-11-17T15:01:57.839Z,12.27
2022-11-17T15:04:49.327Z,12.25
2022-11-17T15:07:17.581Z,12.65
2022-11-17T15:09:50.146Z,10.35
2022-11-17T15:12:20.001Z,11.38
2022-11-17T15:14:50.495Z,11.25
2022-11-17T15:17:20.396Z,12.25
2022-11-17T15:19:50.237Z,11.82
2022-11-17T15:22:20.522Z,13.65
2022-11-17T15:24:53.357Z,11.27
2022-11-17T15:27:23.819Z,12.02
2022-11-17T15:29:54.043Z,12.23
2022-11-17T15:32:24.065Z,12.80
2022-11-17T15:34:54.130Z,12.30
2022-11-17T15:37:24.160Z,11.75
2022-11-17T15:39:56.658Z,11.27
2022-11-17T15:42:26.550Z,12.18
2022-11-17T15:44:56.677Z,11.70
2022-11-17T15:47:26.591Z,12.90
2022-11-17T15:49:58.663Z,11.00
2022-11-17T15:52:48.817Z,11.95
2022-11-17T15:55:21.474Z,12.38
2022-11-17T15:57:51.479Z,12.23
2022-11-17T16:00:22.188Z,11.02
2022-11-17T16:02:58.492Z,12.82
2022-11-17T16:05:28.924Z,12.80
2022-11-17T16:07:58.785Z,12.40
2022-11-17T16:10:31.810Z,11.32
2022-11-17T16:13:01.715Z,12.45
2022-11-17T16:15:31.615Z,11.38
2022-11-17T16:18:01.486Z,12.10
2022-11-17T16:20:31.421Z,12.65
2022-11-17T16:23:01.337Z,11.65
2022-11-17T16:25:33.761Z,12.10
2022-11-17T16:28:03.597Z,11.55
2022-11-17T16:30:35.564Z,11.18
2022-11-17T16:33:06.727Z,11.68
2022-11-17T16:35:36.825Z,12.13
2022-11-17T16:38:06.761Z,12.02
2022-11-17T16:40:39.893Z,12.15
2022-11-17T16:43:10.053Z,11.05
2022-11-17T16:45:46.224Z,11.77
2022-11-17T16:48:16.190Z,11.65
2022-11-17T16:50:46.865Z,11.75
2022-11-17T16:53:16.911Z,12.13
2022-11-17T16:55:49.342Z,12.18
2022-11-17T16:58:21.908Z,12.82
2022-11-17T17:00:51.813Z,13.60
2022-11-17T17:03:21.705Z,11.98
2022-11-17T17:05:51.563Z,12.25
2022-11-17T17:08:21.441Z,12.80
2022-11-17T17:10:53.855Z,13.55
2022-11-17T17:13:23.739Z,12.15
2022-11-17T17:15:53.558Z,13.50
2022-11-17T17:18:23.787Z,12.80
2022-11-17T17:20:54.837Z,14.05
2022-11-17T17:23:24.925Z,13.48
2022-11-17T17:26:06.590Z,12.63
2022-11-17T17:28:40.547Z,15.23
2022-11-17T17:31:12.680Z,14.33
2022-11-17T17:33:44.249Z,15.65
2022-11-17T17:36:16.710Z,13.57
2022-11-17T17:38:51.812Z,14.40
2022-11-17T17:41:29.844Z,13.63
2022-11-17T17:44:02.264Z,13.50
2022-11-17T17:46:33.855Z,14.05
2022-11-17T17:49:04.175Z,13.93
2022-11-17T17:51:34.656Z,13.40
2022-11-17T17:54:04.492Z,13.18
2022-11-17T17:56:37.758Z,15.93
2022-11-17T17:59:07.929Z,13.98
2022-11-17T18:01:40.711Z,13.77
2022-11-17T18:04:15.887Z,13.80
2022-11-17T18:06:48.778Z,15.18
2022-11-17T18:09:21.065Z,15.18
2022-11-17T18:11:53.762Z,15.05
2022-11-17T18:14:25.197Z,15.38
2022-11-17T18:16:56.341Z,14.95
2022-11-17T18:19:32.557Z,15.30
2022-11-17T18:22:03.052Z,13.80
2022-11-17T18:24:33.073Z,14.32
2022-11-17T18:27:05.579Z,14.73
2022-11-17T18:29:35.650Z,14.30
2022-11-17T18:32:05.590Z,13.30
2022-11-17T18:34:35.461Z,15.75
2022-11-17T18:37:05.367Z,14.52
2022-11-17T18:39:35.203Z,15.60
2022-11-17T18:42:07.901Z,17.75
2022-11-17T18:44:37.751Z,15.02
2022-11-17T18:47:07.965Z,15.32
2022-11-17T18:49:38.017Z,16.65
2022-11-17T18:52:09.821Z,15.05
2022-11-17T18:54:39.688Z,13.68
2022-11-17T18:57:12.095Z,14.65
2022-11-17T18:59:41.921Z,15.60
2022-11-17T19:02:11.950Z,13.98
2022-11-17T19:04:41.774Z,14.98
2022-11-17T19:07:11.736Z,15.90
2022-11-17T19:09:41.653Z,14.40
2022-11-17T19:12:14.837Z,15.60
2022-11-17T19:14:44.691Z,16.15
2022-11-17T19:17:14.599Z,14.82
2022-11-17T19:19:44.494Z,15.52
2022-11-17T19:22:14.536Z,16.38
2022-11-17T19:24:44.717Z,16.27
2022-11-17T19:27:17.161Z,18.58
2022-11-17T19:29:49.268Z,18.75
2022-11-17T19:32:19.171Z,16.73
2022-11-17T19:34:49.087Z,17.05
2022-11-17T19:37:19.050Z,17.38
2022-11-17T19:39:52.082Z,17.33
2022-11-17T19:42:27.097Z,16.45
2022-11-17T19:44:58.055Z,17.13
2022-11-17T19:47:27.951Z,17.55
2022-11-17T19:49:57.841Z,17.95
2022-11-17T19:52:27.761Z,15.93
2022-11-17T19:54:57.630Z,15.25
2022-11-17T19:57:30.086Z,16.13
2022-11-17T20:00:00.006Z,16.65
2022-11-17T20:02:30.705Z,17.27
2022-11-17T20:05:01.850Z,16.38
2022-11-17T20:07:33.247Z,15.82
2022-11-17T20:10:03.263Z,17.20
2022-11-17T20:12:37.750Z,16.02
2022-11-17T20:15:11.430Z,17.92
2022-11-17T20:17:51.834Z,17.07
2022-11-17T20:20:21.958Z,16.95
2022-11-17T20:22:51.911Z,17.38
2022-11-17T20:25:21.791Z,17.10
2022-11-17T20:27:54.316Z,17.20
2022-11-17T20:30:24.194Z,16.08
2022-11-17T20:32:54.195Z,17.45
2022-11-17T20:35:24.054Z,17.73
2022-11-17T20:37:54.121Z,16.83
2022-11-17T20:40:24.157Z,17.13
2022-11-17T20:42:56.688Z,17.73
2022-11-17T20:45:27.059Z,16.58
2022-11-17T20:47:56.959Z,16.77
2022-11-17T20:50:27.084Z,15.35
2022-11-17T20:52:56.946Z,17.48
2022-11-17T20:55:26.965Z,15.55
2022-11-17T20:57:59.595Z,15.60
2022-11-17T21:00:29.473Z,16.73
2022-11-17T21:03:00.227Z,17.75
2022-11-17T21:05:30.129Z,14.43
2022-11-17T21:08:00.002Z,14.73
2022-11-17T21:10:30.139Z,15.25
2022-11-17T21:13:04.566Z,16.08
2022-11-17T21:15:34.454Z,15.43
2022-11-17T21:18:16.869Z,15.32
2022-11-17T21:20:46.832Z,15.25
2022-11-17T21:23:17.552Z,17.35
2022-11-17T21:25:47.465Z,15.98
2022-11-17T21:28:19.897Z,15.10
2022-11-17T21:30:49.794Z,15.90
2022-11-17T21:33:19.679Z,15.63
2022-11-17T21:35:49.615Z,15.75
2022-11-17T21:38:19.562Z,16.08
2022-11-17T21:40:49.510Z,13.93
2022-11-17T21:43:21.980Z,15.20
2022-11-17T21:45:51.965Z,15.98
2022-11-17T21:48:21.883Z,14.98
2022-11-17T21:50:51.909Z,16.65
2022-11-17T21:53:22.071Z,15.63
2022-11-17T21:55:51.951Z,15.85
2022-11-17T21:58:24.446Z,15.35
2022-11-17T22:00:54.368Z,15.07
2022-11-17T22:03:24.371Z,15.18
2022-11-17T22:05:59.468Z,16.30
2022-11-17T22:08:32.020Z,14.98
2022-11-17T22:11:06.811Z,16.50
2022-11-17T22:16:13.694Z,16.17
2022-11-17T22:18:44.294Z,16.63
2022-11-17T22:21:14.227Z,16.58
2022-11-17T22:23:44.082Z,15.43
2022-11-17T22:26:14.208Z,17.20
2022-11-17T22:28:46.685Z,17.13
2022-11-17T22:31:16.534Z,16.75
2022-11-17T22:33:48.386Z,16.85
2022-11-17T22:36:18.675Z,16.77
2022-11-17T22:38:52.073Z,16.15
2022-11-17T22:41:24.313Z,18.63
2022-11-17T22:43:59.023Z,17.40
2022-11-17T22:49:00.438Z,17.80
2022-11-17T22:51:42.836Z,18.70
2022-11-17T22:54:12.990Z,17.20
2022-11-17T22:56:42.843Z,17.80
2022-11-17T22:59:15.525Z,17.65
2022-11-17T23:01:45.636Z,17.65
2022-11-17T23:04:16.415Z,17.48
2022-11-17T23:06:46.647Z,17.27
2022-11-17T23:09:16.640Z,19.67
2022-11-17T23:11:46.838Z,17.75
2022-11-17T23:14:19.311Z,16.95
2022-11-17T23:16:49.179Z,17.23
2022-11-17T23:19:19.205Z,18.67
2022-11-17T23:21:49.389Z,17.38
2022-11-17T23:24:19.339Z,17.98
2022-11-17T23:26:49.414Z,18.15
2022-11-17T23:29:21.831Z,18.63
2022-11-17T23:31:51.691Z,19.58
2022-11-17T23:34:21.875Z,19.00
2022-11-17T23:36:51.746Z,18.20
2022-11-17T23:39:21.598Z,18.52
2022-11-17T23:41:51.500Z,19.10
2022-11-17T23:44:23.937Z,18.48
2022-11-17T23:46:53.803Z,16.75
2022-11-17T23:49:23.650Z,18.27
2022-11-17T23:51:53.474Z,18.23
2022-11-17T23:54:23.296Z,17.77
2022-11-17T23:56:53.236Z,18.13
2022-11-17T23:59:25.817Z,17.38
